»·PEaware :: SWA102 KPHX-KSAN

SWA102 :: KPHX-KSAN

FLIGHT INFORMATION

Flight Status: Arrived
Operator:
Southwest Airlines
More flights by this operator :: More flights under this callsign
Pilot: Cole F. (14495)
Aircraft: BOEING 737-200
(B732)
More flights by this aircraft type
Origin: KPHX Phoenix Sky Harbor Intl
United States
Destination: KSAN San Diego Intl-Lindbergh
United States
More flights between these airports :: More routes between these airports
Route: +MOBIE4 GBN BZA IPL BARET5
File this flight plan on PilotEdge
Remarks:
Altitude:
(Current/Filed)
26,000ft
Speed:
(Current/Filed)
427kts
Departed: 24-Jan-18 02:20 PM
Arrived: 24-Jan-18 03:15 PM
Distance/Time
Traveled:
264nm/0:54
Distance/Time
To Go:
Arrived

Flight Plot

Page will automatically refresh every two minutes.

Flight plan parsing failed; only flown route is shown


Map Options




Map Legend


Flown Route
Filed Route
Departure Airport
Arrival Airport
Navaid (VOR, NDB)
Fix

Horizontal Profiles

Position Reports

Time Latitude Longitude Heading Altitude Ground
Speed
24-Jan-18 14:02 33.434064 -111.994776 89 1143ft 0kts
24-Jan-18 14:03 33.434064 -111.994776 89 1143ft 0kts
24-Jan-18 14:04 33.434064 -111.994776 89 1143ft 0kts
24-Jan-18 14:05 33.434064 -111.994776 89 1143ft 0kts
24-Jan-18 14:06 33.434064 -111.994776 89 1143ft 0kts
24-Jan-18 14:07 33.434064 -111.994776 89 1143ft 0kts
24-Jan-18 14:08 33.434064 -111.994776 89 1143ft 0kts
24-Jan-18 14:09 33.434064 -111.994776 89 1143ft 0kts
24-Jan-18 14:10 33.434064 -111.994776 89 1143ft 0kts
24-Jan-18 14:11 33.434064 -111.994776 89 1143ft 0kts
24-Jan-18 14:12 33.434064 -111.994776 89 1143ft 0kts
24-Jan-18 14:13 33.434064 -111.994776 89 1143ft 0kts
24-Jan-18 14:14 33.434064 -111.994776 89 1143ft 0kts
24-Jan-18 14:15 33.434064 -111.994772 89 1143ft 0kts
24-Jan-18 14:16 33.434259 -111.995299 166 1143ft 2kts
24-Jan-18 14:17 33.434056 -111.995310 180 1143ft 0kts
24-Jan-18 14:18 33.434056 -111.995310 180 1143ft 0kts
24-Jan-18 14:19 33.433457 -111.995306 179 1143ft 0kts
24-Jan-18 14:20 33.432141 -111.997307 269 1143ft 14kts
24-Jan-18 14:21 33.432141 -112.003014 270 1143ft 19kts
24-Jan-18 14:22 33.432146 -112.009100 270 1143ft 18kts
24-Jan-18 14:23 33.432151 -112.015656 270 1143ft 18kts
24-Jan-18 14:24 33.432162 -112.022094 269 1142ft 20kts
24-Jan-18 14:25 33.432074 -112.026772 233 1143ft 7kts
24-Jan-18 14:26 33.431073 -112.020273 89 1143ft 96kts
24-Jan-18 14:27 33.433173 -111.967546 84 3052ft 180kts
24-Jan-18 14:28 33.439107 -111.888556 89 5259ft 269kts
24-Jan-18 14:29 33.416176 -111.802705 109 8529ft 280kts
24-Jan-18 14:30 33.351425 -111.773098 207 10614ft 314kts
24-Jan-18 14:31 33.317340 -111.870819 259 12730ft 343kts
24-Jan-18 14:32 33.304907 -111.985849 259 14754ft 355kts
24-Jan-18 14:33 33.292522 -112.104226 259 16573ft 365kts
24-Jan-18 14:34 33.227063 -112.183583 203 18181ft 354kts
24-Jan-18 14:35 33.143708 -112.245008 214 19974ft 354kts
24-Jan-18 14:36 33.065036 -112.316893 231 21196ft 362kts
24-Jan-18 14:37 33.031368 -112.430119 253 22351ft 369kts
24-Jan-18 14:38 33.002119 -112.530605 252 23159ft 378kts
24-Jan-18 14:39 32.966321 -112.645534 248 24875ft 362kts
24-Jan-18 14:40 32.956756 -112.765432 272 25491ft 380kts
24-Jan-18 14:41 32.955946 -112.890639 263 26099ft 384kts
24-Jan-18 14:42 32.945305 -113.017897 260 26100ft 388kts
24-Jan-18 14:43 32.932253 -113.146871 260 26100ft 396kts
24-Jan-18 14:44 32.919624 -113.266791 260 26103ft 405kts
24-Jan-18 14:45 32.905121 -113.401703 260 26094ft 413kts
24-Jan-18 14:46 32.889653 -113.535801 260 26100ft 412kts
24-Jan-18 14:47 32.874426 -113.670930 259 26106ft 412kts
24-Jan-18 14:48 32.859112 -113.806031 260 26106ft 414kts
24-Jan-18 14:49 32.843992 -113.941654 260 26102ft 415kts
24-Jan-18 14:50 32.828588 -114.077934 260 26103ft 416kts
24-Jan-18 14:51 32.813143 -114.213563 260 26102ft 416kts
24-Jan-18 14:52 32.797478 -114.349805 260 26101ft 416kts
24-Jan-18 14:53 32.781699 -114.485742 260 26100ft 416kts
24-Jan-18 14:54 32.772126 -114.622089 278 26107ft 422kts
24-Jan-18 14:55 32.785680 -114.754469 267 26107ft 418kts
24-Jan-18 14:56 32.782318 -114.892482 264 26105ft 418kts
24-Jan-18 14:57 32.775573 -115.030105 264 26153ft 418kts
24-Jan-18 14:58 32.768146 -115.167424 264 26238ft 417kts
24-Jan-18 14:59 32.760443 -115.303940 263 25674ft 412kts
24-Jan-18 15:00 32.752859 -115.437082 263 24644ft 398kts
24-Jan-18 15:01 32.748983 -115.567893 269 24129ft 395kts
24-Jan-18 15:02 32.752662 -115.685168 268 23299ft 384kts
24-Jan-18 15:03 32.757064 -115.807147 268 22119ft 364kts
24-Jan-18 15:04 32.761970 -115.925069 269 20994ft 357kts
24-Jan-18 15:05 32.766943 -116.041893 269 19263ft 351kts
24-Jan-18 15:06 32.772813 -116.155938 269 17334ft 343kts
24-Jan-18 15:07 32.778660 -116.267858 269 15434ft 337kts
24-Jan-18 15:08 32.784194 -116.377909 269 13507ft 332kts
24-Jan-18 15:09 32.786961 -116.486743 268 11279ft 331kts
24-Jan-18 15:10 32.783766 -116.575724 267 9978ft 303kts
24-Jan-18 15:11 32.780108 -116.669408 267 8826ft 295kts
24-Jan-18 15:12 32.746073 -116.753094 233 7477ft 281kts
24-Jan-18 15:13 32.702431 -116.823978 233 5875ft 258kts
24-Jan-18 15:14 32.658797 -116.904767 274 4963ft 235kts
24-Jan-18 15:15 32.676127 -116.960308 289 4493ft 212kts
24-Jan-18 15:16 32.692073 -117.019881 286 3444ft 168kts
24-Jan-18 15:17 32.704228 -117.069091 286 2126ft 140kts
24-Jan-18 15:18 32.716456 -117.119889 286 1338ft 140kts
24-Jan-18 15:19 32.725622 -117.157208 286 647ft 138kts
24-Jan-18 15:20 32.734832 -117.194911 286 26ft 56kts
24-Jan-18 15:21 32.734359 -117.197256 110 26ft 12kts

Navigation Log

Ident Type
Flight plan parsing failed, navigation log unavailable